createdAt,value
2022-08-19T00:00:30.991Z,95110.34
2022-08-19T00:03:00.576Z,95113.84
2022-08-19T00:05:30.064Z,95125.53
2022-08-19T00:07:59.734Z,95120.41
2022-08-19T00:10:30.797Z,95115.94
2022-08-19T00:13:00.310Z,95111.44
2022-08-19T00:15:30.005Z,95107.47
2022-08-19T00:17:59.497Z,95120.88
2022-08-19T00:20:29.460Z,95119.78
2022-08-19T00:22:59.000Z,95113.50
2022-08-19T00:25:30.520Z,95117.19
2022-08-19T00:28:00.918Z,95110.66
2022-08-19T00:30:31.049Z,95107.94
2022-08-19T00:33:01.029Z,95102.19
2022-08-19T00:35:30.757Z,95094.03
2022-08-19T00:38:00.347Z,95094.50
2022-08-19T00:40:31.713Z,95087.47
2022-08-19T00:43:01.474Z,95083.31
2022-08-19T00:45:33.177Z,95073.22
2022-08-19T00:48:06.955Z,95081.22
2022-08-19T00:50:52.325Z,95083.94
2022-08-19T00:53:27.373Z,95077.06
2022-08-19T00:56:02.183Z,95075.47
2022-08-19T00:58:37.213Z,95064.09
2022-08-19T01:01:08.615Z,95071.75
2022-08-19T01:03:56.653Z,95082.63
2022-08-19T01:06:28.404Z,95085.34
2022-08-19T01:08:57.899Z,95100.41
2022-08-19T01:11:30.096Z,95097.50
2022-08-19T01:14:00.424Z,95090.47
2022-08-19T01:16:32.250Z,95077.34
2022-08-19T01:19:02.622Z,95071.59
2022-08-19T01:21:40.104Z,95068.53
2022-08-19T01:24:11.233Z,95073.66
2022-08-19T01:26:45.775Z,95073.50
2022-08-19T01:29:16.253Z,95092.88
2022-08-19T01:31:46.341Z,95114.31
2022-08-19T01:34:15.857Z,95097.97
2022-08-19T01:36:50.013Z,95088.22
2022-08-19T01:39:25.890Z,95089.22
2022-08-19T01:41:55.984Z,95086.03
2022-08-19T01:44:25.887Z,95094.50
2022-08-19T01:46:55.403Z,95098.81
2022-08-19T01:49:28.335Z,95106.50
2022-08-19T01:51:59.217Z,95112.22
2022-08-19T01:54:30.691Z,95117.06
2022-08-19T01:57:07.938Z,95125.81
2022-08-19T01:59:37.883Z,95121.38
2022-08-19T02:02:09.373Z,95125.34
2022-08-19T02:04:40.227Z,95112.53
2022-08-19T02:07:10.514Z,95097.69
2022-08-19T02:09:41.341Z,95092.56
2022-08-19T02:12:10.900Z,95083.94
2022-08-19T02:14:40.362Z,95083.63
2022-08-19T02:17:10.350Z,95092.09
2022-08-19T02:19:40.976Z,95104.75
2022-08-19T02:22:11.772Z,95102.50
2022-08-19T02:24:42.677Z,95090.97
2022-08-19T02:27:12.206Z,95105.53
2022-08-19T02:29:41.897Z,95104.91
2022-08-19T02:32:11.405Z,95115.44
2022-08-19T02:34:41.049Z,95111.09
2022-08-19T02:37:31.303Z,95105.84
2022-08-19T02:40:12.262Z,95107.44
2022-08-19T02:42:44.005Z,95111.47
2022-08-19T02:45:14.245Z,95104.09
2022-08-19T02:47:44.452Z,95087.47
2022-08-19T02:50:14.596Z,95086.03
2022-08-19T02:52:44.040Z,95081.38
2022-08-19T02:55:14.951Z,95082.81
2022-08-19T02:57:44.445Z,95066.03
2022-08-19T03:00:15.296Z,95056.28
2022-08-19T03:02:44.825Z,95042.84
2022-08-19T03:05:14.554Z,95044.13
2022-08-19T03:07:44.308Z,95049.88
2022-08-19T03:10:15.385Z,95049.22
2022-08-19T03:12:45.996Z,95040.28
2022-08-19T03:15:16.436Z,95043.47
2022-08-19T03:17:45.877Z,95047.97
2022-08-19T03:20:15.453Z,95051.47
2022-08-19T03:22:44.925Z,95054.19
2022-08-19T03:25:16.832Z,95065.72
2022-08-19T03:27:49.907Z,95081.19
2022-08-19T03:30:20.492Z,95097.38
2022-08-19T03:32:57.142Z,95104.25
2022-08-19T03:35:27.205Z,95111.94
2022-08-19T03:37:57.340Z,95103.28
2022-08-19T03:40:30.720Z,95102.19
2022-08-19T03:43:00.386Z,95102.97
2022-08-19T03:45:30.529Z,95100.09
2022-08-19T03:48:00.046Z,95088.09
2022-08-19T03:50:29.653Z,95074.03
2022-08-19T03:52:59.132Z,95068.44
2022-08-19T03:55:30.135Z,95060.59
2022-08-19T03:58:00.103Z,95071.16
2022-08-19T04:00:29.549Z,95063.97
2022-08-19T04:03:00.943Z,95075.16
2022-08-19T04:05:30.983Z,95082.50
2022-08-19T04:08:01.488Z,95083.63
2022-08-19T04:10:32.465Z,95084.91
2022-08-19T04:13:01.959Z,95085.38
2022-08-19T04:15:34.365Z,95073.06
2022-08-19T04:18:07.079Z,95080.09
2022-08-19T04:20:46.326Z,95091.78
2022-08-19T04:23:16.982Z,95077.38
2022-08-19T04:25:47.845Z,95082.50
2022-08-19T04:28:17.404Z,95074.03
2022-08-19T04:30:52.153Z,95079.94
2022-08-19T04:33:28.730Z,95082.34
2022-08-19T04:35:59.131Z,95091.63
2022-08-19T04:38:28.985Z,95096.09
2022-08-19T04:41:17.398Z,95108.91
2022-08-19T04:43:49.704Z,95106.78
2022-08-19T04:46:39.493Z,95105.53
2022-08-19T04:49:13.606Z,95110.19
2022-08-19T04:51:48.163Z,95111.09
2022-08-19T04:54:33.810Z,95107.91
2022-08-19T04:57:11.548Z,95112.91
2022-08-19T04:59:41.474Z,95119.44
2022-08-19T05:02:11.836Z,95118.97
2022-08-19T05:04:41.347Z,95130.31
2022-08-19T05:07:11.311Z,95125.22
2022-08-19T05:09:57.999Z,95126.34
2022-08-19T05:12:30.641Z,95147.91
2022-08-19T05:15:01.819Z,95150.16
2022-08-19T05:17:36.292Z,95151.78
2022-08-19T05:20:29.863Z,95149.06
2022-08-19T05:22:59.378Z,95145.66
2022-08-19T05:25:28.964Z,95143.75
2022-08-19T05:27:59.808Z,95150.28
2022-08-19T05:30:46.090Z,95151.25
2022-08-19T05:33:16.695Z,95142.31
2022-08-19T05:35:47.125Z,95141.66
2022-08-19T05:38:16.834Z,95133.19
2022-08-19T05:40:50.451Z,95125.16
2022-08-19T05:43:21.400Z,95112.84
2022-08-19T05:45:51.552Z,95114.94
2022-08-19T05:48:21.486Z,95112.84
2022-08-19T05:50:51.733Z,95110.41
2022-08-19T05:53:21.764Z,95105.91
2022-08-19T05:55:51.352Z,95108.78
2022-08-19T05:58:23.237Z,95115.03
2022-08-19T06:00:57.661Z,95112.00
2022-08-19T06:03:28.189Z,95100.16
2022-08-19T06:06:00.079Z,95107.19
2022-08-19T06:08:34.501Z,95113.44
2022-08-19T06:11:23.209Z,95116.66
2022-08-19T06:13:59.741Z,95123.69
2022-08-19T06:16:35.858Z,95118.25
2022-08-19T06:19:10.931Z,95129.13
2022-08-19T06:21:44.341Z,95138.09
2022-08-19T06:24:18.912Z,95138.44
2022-08-19T06:26:51.418Z,95144.16
2022-08-19T06:29:27.580Z,95155.03
2022-08-19T06:32:00.310Z,95156.97
2022-08-19T06:34:32.120Z,95152.97
2022-08-19T06:37:03.953Z,95164.66
2022-08-19T06:39:40.188Z,95158.41
2022-08-19T06:42:12.731Z,95156.16
2022-08-19T06:44:48.899Z,95158.88
2022-08-19T06:47:23.498Z,95152.31
2022-08-19T06:50:01.263Z,95156.34
2022-08-19T06:52:36.527Z,95157.78
2022-08-19T06:55:16.653Z,95150.91
2022-08-19T06:57:49.092Z,95145.75
2022-08-19T07:00:20.303Z,95145.47
2022-08-19T07:02:57.255Z,95132.81
2022-08-19T07:05:28.970Z,95134.75
2022-08-19T07:08:02.858Z,95136.00
2022-08-19T07:10:35.990Z,95129.13
2022-08-19T07:13:06.784Z,95140.81
2022-08-19T07:15:39.904Z,95129.41
2022-08-19T07:18:11.714Z,95127.16
2022-08-19T07:20:43.930Z,95125.06
2022-08-19T07:23:16.043Z,95122.16
2022-08-19T07:25:53.147Z,95123.59
2022-08-19T07:28:24.362Z,95119.19
2022-08-19T07:30:56.175Z,95110.66
2022-08-19T07:33:27.950Z,95113.34
2022-08-19T07:35:57.663Z,95104.66
2022-08-19T07:38:27.356Z,95099.00
2022-08-19T07:40:56.927Z,95099.16
2022-08-19T07:43:33.434Z,95095.63
2022-08-19T07:46:06.346Z,95099.47
2022-08-19T07:48:36.228Z,95108.13
2022-08-19T07:51:10.419Z,95111.50
2022-08-19T07:53:45.752Z,95106.19
2022-08-19T07:56:16.382Z,95101.88
2022-08-19T07:58:49.329Z,95112.44
2022-08-19T08:01:26.076Z,95114.50
2022-08-19T08:04:15.788Z,95114.19
2022-08-19T08:07:03.529Z,95113.84
2022-08-19T08:09:39.809Z,95112.06
2022-08-19T08:12:33.660Z,95114.00
2022-08-19T08:15:12.520Z,95118.78
2022-08-19T08:17:49.214Z,95114.94
2022-08-19T08:20:21.315Z,95118.78
2022-08-19T08:23:08.612Z,95121.03
2022-08-19T08:25:39.309Z,95124.09
2022-08-19T08:28:11.344Z,95127.16
2022-08-19T08:30:48.972Z,95129.88
2022-08-19T08:33:32.980Z,95134.38
2022-08-19T08:36:06.377Z,95130.72
2022-08-19T08:38:41.261Z,95131.38
2022-08-19T08:41:26.624Z,95132.34
2022-08-19T08:43:58.007Z,95138.13
2022-08-19T08:46:39.049Z,95131.09
2022-08-19T08:49:36.140Z,95155.50
2022-08-19T08:52:13.385Z,95154.69
2022-08-19T08:54:54.989Z,95151.34
2022-08-19T08:57:36.978Z,95150.22
2022-08-19T09:00:21.892Z,95164.03
2022-08-19T09:02:51.734Z,95164.19
2022-08-19T09:05:25.792Z,95170.16
2022-08-19T09:08:07.763Z,95172.28
2022-08-19T09:10:44.657Z,95171.00
2022-08-19T09:13:37.251Z,95168.59
2022-08-19T09:16:13.952Z,95169.41
2022-08-19T09:18:47.922Z,95170.84
2022-08-19T09:21:20.906Z,95170.84
2022-08-19T09:23:52.449Z,95164.13
2022-08-19T09:26:25.463Z,95168.44
2022-08-19T09:29:15.410Z,95168.28
2022-08-19T09:31:47.254Z,95175.19
2022-08-19T09:34:21.169Z,95171.66
2022-08-19T09:36:54.541Z,95169.59
2022-08-19T09:39:24.446Z,95168.63
2022-08-19T09:41:54.647Z,95178.88
2022-08-19T09:44:27.660Z,95168.31
2022-08-19T09:46:57.182Z,95174.88
2022-08-19T09:49:26.652Z,95173.94
2022-08-19T09:51:57.948Z,95176.00
2022-08-19T09:54:28.542Z,95181.91
2022-08-19T09:57:01.183Z,95182.56
2022-08-19T09:59:34.193Z,95183.34
2022-08-19T10:02:10.821Z,95182.06
2022-08-19T10:04:58.444Z,95182.72
2022-08-19T10:07:36.370Z,95181.13
2022-08-19T10:10:10.211Z,95168.47
2022-08-19T10:12:40.332Z,95174.69
2022-08-19T10:15:13.050Z,95170.19
2022-08-19T10:17:48.037Z,95174.78
2022-08-19T10:20:24.522Z,95170.13
2022-08-19T10:22:55.499Z,95172.03
2022-08-19T10:25:25.013Z,95179.75
2022-08-19T10:27:56.050Z,95177.31
2022-08-19T10:30:25.800Z,95180.00
2022-08-19T10:32:55.340Z,95183.78
2022-08-19T10:35:27.488Z,95181.53
2022-08-19T10:38:00.288Z,95178.63
2022-08-19T10:40:31.786Z,95179.44
2022-08-19T10:43:01.340Z,95178.78
2022-08-19T10:45:30.813Z,95171.09
2022-08-19T10:48:00.318Z,95174.44
2022-08-19T10:50:47.606Z,95175.72
2022-08-19T10:53:18.879Z,95173.13
2022-08-19T10:56:07.066Z,95171.38
2022-08-19T10:58:36.581Z,95166.88
2022-08-19T11:01:06.582Z,95160.75
2022-08-19T11:03:36.056Z,95159.16
2022-08-19T11:06:33.390Z,95163.28
2022-08-19T11:09:05.586Z,95168.56
2022-08-19T11:11:42.284Z,95170.69
2022-08-19T11:14:19.153Z,95166.69
2022-08-19T11:16:50.138Z,95168.03
2022-08-19T11:19:20.831Z,95163.34
2022-08-19T11:21:51.349Z,95169.25
2022-08-19T11:24:28.384Z,95167.00
2022-08-19T11:27:06.161Z,95165.41
2022-08-19T11:29:36.297Z,95163.63
2022-08-19T11:32:10.880Z,95162.63
2022-08-19T11:34:40.989Z,95153.16
2022-08-19T11:37:10.627Z,95149.91
2022-08-19T11:39:41.448Z,95153.81
2022-08-19T11:42:29.030Z,95153.28
2022-08-19T11:44:58.877Z,95158.69
2022-08-19T11:47:28.344Z,95158.25
2022-08-19T11:49:58.094Z,95155.53
2022-08-19T11:52:27.740Z,95168.50
2022-08-19T11:54:58.565Z,95161.66
2022-08-19T11:57:28.164Z,95161.78
2022-08-19T11:59:57.636Z,95156.94
2022-08-19T12:02:27.340Z,95163.31
2022-08-19T12:04:56.761Z,95156.72
2022-08-19T12:07:26.615Z,95157.41
2022-08-19T12:09:57.841Z,95159.31
2022-08-19T12:12:27.697Z,95160.72
2022-08-19T12:14:59.358Z,95160.59
2022-08-19T12:17:29.687Z,95164.03
2022-08-19T12:19:59.225Z,95168.56
2022-08-19T12:22:29.135Z,95175.28
2022-08-19T12:24:59.936Z,95177.47
2022-08-19T12:27:34.692Z,95180.63
2022-08-19T12:30:14.208Z,95180.41
2022-08-19T12:32:43.680Z,95197.38
2022-08-19T12:35:13.271Z,95186.41
2022-08-19T12:37:45.321Z,95189.13
2022-08-19T12:40:27.883Z,95199.84
2022-08-19T12:42:57.408Z,95200.53
2022-08-19T12:45:26.903Z,95194.25
2022-08-19T12:47:56.638Z,95202.91
2022-08-19T12:50:26.470Z,95199.53
2022-08-19T12:52:56.067Z,95193.94
2022-08-19T12:55:29.133Z,95209.31
2022-08-19T12:57:58.625Z,95203.50
2022-08-19T13:00:28.179Z,95217.84
2022-08-19T13:02:58.477Z,95220.63
2022-08-19T13:05:32.848Z,95216.47
2022-08-19T13:08:02.871Z,95214.78
2022-08-19T13:10:37.549Z,95215.16
2022-08-19T13:13:11.572Z,95222.47
2022-08-19T13:15:45.535Z,95220.63
2022-08-19T13:18:16.816Z,95212.22
2022-08-19T13:20:52.929Z,95207.41
2022-08-19T13:23:22.640Z,95208.22
2022-08-19T13:25:59.942Z,95206.44
2022-08-19T13:28:49.935Z,95209.94
2022-08-19T13:31:39.247Z,95207.88
2022-08-19T13:34:09.622Z,95208.22
2022-08-19T13:36:40.263Z,95209.16
2022-08-19T13:39:11.007Z,95203.56
2022-08-19T13:41:49.086Z,95196.91
2022-08-19T13:44:20.789Z,95200.50
2022-08-19T13:46:54.324Z,95203.59
2022-08-19T13:49:24.184Z,95193.84
2022-08-19T13:51:53.663Z,95194.84
2022-08-19T13:54:23.165Z,95189.09
2022-08-19T13:56:54.043Z,95190.81
2022-08-19T13:59:23.525Z,95179.69
2022-08-19T14:01:52.972Z,95185.53
2022-08-19T14:04:22.528Z,95187.47
2022-08-19T14:06:51.999Z,95189.47
2022-08-19T14:09:21.439Z,95195.28
2022-08-19T14:11:51.768Z,95190.16
2022-08-19T14:14:22.596Z,95192.06
2022-08-19T14:16:52.816Z,95193.09
2022-08-19T14:19:22.289Z,95193.84
2022-08-19T14:21:53.011Z,95191.59
2022-08-19T14:24:22.404Z,95194.88
2022-08-19T14:26:52.135Z,95190.81
2022-08-19T14:29:22.964Z,95191.28
2022-08-19T14:31:52.491Z,95198.00
2022-08-19T14:34:23.092Z,95195.28
2022-08-19T14:36:52.596Z,95198.00
2022-08-19T14:39:22.213Z,95201.28
2022-08-19T14:41:51.718Z,95209.94
2022-08-19T14:44:23.640Z,95217.53
2022-08-19T14:46:53.579Z,95218.31
2022-08-19T14:49:29.744Z,95221.63
2022-08-19T14:52:06.005Z,95227.41
2022-08-19T14:54:35.560Z,95225.81
2022-08-19T14:57:05.581Z,95223.63
2022-08-19T14:59:37.964Z,95234.75
2022-08-19T15:02:33.283Z,95237.03
2022-08-19T15:04:58.299Z,95241.00
2022-08-19T15:07:29.676Z,95242.84
2022-08-19T15:09:59.848Z,95246.09
2022-08-19T15:12:29.316Z,95256.59
2022-08-19T15:15:00.215Z,95254.25
2022-08-19T15:17:43.581Z,95254.31
2022-08-19T15:20:19.625Z,95257.53
2022-08-19T15:22:49.381Z,95255.31
2022-08-19T15:25:21.243Z,95257.44
2022-08-19T15:27:51.146Z,95256.66
2022-08-19T15:30:27.970Z,95256.88
2022-08-19T15:32:59.847Z,95262.66
2022-08-19T15:35:30.146Z,95261.25
2022-08-19T15:37:59.734Z,95258.41
2022-08-19T15:40:29.967Z,95251.41
2022-08-19T15:42:59.814Z,95258.44
2022-08-19T15:45:32.716Z,95252.38
2022-08-19T15:48:04.518Z,95263.09
2022-08-19T15:50:34.280Z,95259.75
2022-08-19T15:53:07.899Z,95257.97
2022-08-19T15:55:46.036Z,95261.19
2022-08-19T15:58:34.334Z,95263.44
2022-08-19T16:01:27.379Z,95272.41
2022-08-19T16:04:16.316Z,95274.66
2022-08-19T16:06:49.827Z,95274.66
2022-08-19T16:09:27.463Z,95275.00
2022-08-19T16:12:01.892Z,95277.06
2022-08-19T16:14:37.992Z,95281.72
2022-08-19T16:17:11.527Z,95280.91
2022-08-19T16:19:41.054Z,95281.72
2022-08-19T16:22:10.810Z,95278.81
2022-08-19T16:24:40.336Z,95280.44
2022-08-19T16:27:10.050Z,95281.84
2022-08-19T16:29:39.700Z,95285.69
2022-08-19T16:32:12.837Z,95286.31
2022-08-19T16:34:43.420Z,95294.78
2022-08-19T16:37:13.307Z,95285.34
2022-08-19T16:39:43.655Z,95296.41
2022-08-19T16:42:14.582Z,95287.28
2022-08-19T16:44:47.220Z,95284.22
2022-08-19T16:47:18.102Z,95293.19
2022-08-19T16:49:54.008Z,95294.16
2022-08-19T16:52:26.257Z,95300.25
2022-08-19T16:54:56.014Z,95297.34
2022-08-19T16:57:25.775Z,95299.59
2022-08-19T16:59:55.372Z,95305.34
2022-08-19T17:02:29.675Z,95307.28
2022-08-19T17:05:00.881Z,95312.25
2022-08-19T17:07:32.273Z,95311.59
2022-08-19T17:10:05.162Z,95307.44
2022-08-19T17:12:35.014Z,95320.41
2022-08-19T17:15:08.164Z,95327.59
2022-08-19T17:17:39.046Z,95333.22
2022-08-19T17:20:10.107Z,95330.34
2022-08-19T17:23:14.134Z,95328.25
2022-08-19T17:25:44.572Z,95328.09
2022-08-19T17:28:20.757Z,95331.13
2022-08-19T17:30:50.338Z,95340.72
2022-08-19T17:33:21.662Z,95345.66
2022-08-19T17:35:51.302Z,95349.00
2022-08-19T17:38:24.488Z,95348.22
2022-08-19T17:41:01.162Z,95352.06
2022-08-19T17:43:32.343Z,95351.56
2022-08-19T17:46:04.240Z,95360.53
2022-08-19T17:48:38.823Z,95359.41
2022-08-19T17:51:17.410Z,95368.38
2022-08-19T17:53:53.277Z,95369.00
2022-08-19T17:56:23.851Z,95372.84
2022-08-19T17:58:59.798Z,95370.13
2022-08-19T18:01:51.834Z,95372.38
2022-08-19T18:04:24.808Z,95367.56
2022-08-19T18:06:55.903Z,95372.84
2022-08-19T18:09:38.585Z,95380.38
2022-08-19T18:12:14.072Z,95391.69
2022-08-19T18:14:44.304Z,95387.50
2022-08-19T18:17:19.014Z,95388.44
2022-08-19T18:19:50.006Z,95399.94
2022-08-19T18:22:28.404Z,95401.22
2022-08-19T18:24:59.734Z,95393.69
2022-08-19T18:27:29.598Z,95396.91
2022-08-19T18:30:00.239Z,95391.78
2022-08-19T18:32:33.613Z,95393.81
2022-08-19T18:35:11.063Z,95394.13
2022-08-19T18:37:41.474Z,95396.84
2022-08-19T18:40:34.886Z,95400.06
2022-08-19T18:43:30.926Z,95400.06
2022-08-19T18:46:17.944Z,95408.72
2022-08-19T18:49:05.269Z,95406.59
2022-08-19T18:51:36.583Z,95410.75
2022-08-19T18:54:06.344Z,95418.34
2022-08-19T18:56:37.639Z,95414.63
2022-08-19T18:59:07.324Z,95420.50
2022-08-19T19:01:40.640Z,95429.41
2022-08-19T19:04:11.481Z,95425.41
2022-08-19T19:06:43.644Z,95437.22
2022-08-19T19:09:19.681Z,95432.38
2022-08-19T19:11:55.393Z,95440.84
2022-08-19T19:14:48.055Z,95442.38
2022-08-19T19:17:25.661Z,95448.44
2022-08-19T19:19:55.429Z,95453.97
2022-08-19T19:22:26.743Z,95452.69
2022-08-19T19:24:56.432Z,95457.47
2022-08-19T19:27:26.263Z,95452.16
2022-08-19T19:29:55.758Z,95455.47
2022-08-19T19:32:36.941Z,95458.50
2022-08-19T19:35:10.581Z,95452.88
2022-08-19T19:37:43.306Z,95449.34
2022-08-19T19:40:13.145Z,95458.63
2022-08-19T19:42:42.586Z,95457.81
2022-08-19T19:45:12.189Z,95458.81
2022-08-19T19:47:42.573Z,95455.59
2022-08-19T19:50:15.338Z,95456.50
2022-08-19T19:52:48.116Z,95462.44
2022-08-19T19:55:18.967Z,95471.09
2022-08-19T19:57:49.890Z,95472.81
2022-08-19T20:00:20.784Z,95471.09
2022-08-19T20:02:51.228Z,95476.81
2022-08-19T20:05:21.889Z,95483.06
2022-08-19T20:08:13.141Z,95487.88
2022-08-19T20:10:44.834Z,95493.59
2022-08-19T20:13:15.432Z,95500.47
2022-08-19T20:15:45.575Z,95502.16
2022-08-19T20:18:15.304Z,95502.16
2022-08-19T20:20:46.390Z,95502.16
2022-08-19T20:23:17.370Z,95504.59
2022-08-19T20:25:47.090Z,95504.59
2022-08-19T20:28:17.311Z,95505.09
2022-08-19T20:30:48.222Z,95514.34
2022-08-19T20:33:19.187Z,95513.22
2022-08-19T20:35:48.715Z,95505.97
2022-08-19T20:38:19.534Z,95504.88
2022-08-19T20:40:49.069Z,95505.97
2022-08-19T20:43:18.516Z,95496.81
2022-08-19T20:45:48.052Z,95497.94
2022-08-19T20:48:17.597Z,95506.78
2022-08-19T20:50:47.615Z,95504.66
2022-08-19T20:53:23.331Z,95504.66
2022-08-19T20:55:52.806Z,95500.03
2022-08-19T20:58:27.966Z,95504.66
2022-08-19T21:01:02.980Z,95506.88
2022-08-19T21:03:36.544Z,95517.94
2022-08-19T21:06:15.265Z,95505.97
2022-08-19T21:08:46.948Z,95511.09
2022-08-19T21:11:20.615Z,95515.13
2022-08-19T21:13:50.245Z,95516.72
2022-08-19T21:16:19.757Z,95519.94
2022-08-19T21:18:49.336Z,95514.31
2022-08-19T21:21:18.873Z,95517.53
2022-08-19T21:23:49.795Z,95506.66
2022-08-19T21:26:19.320Z,95509.38
2022-08-19T21:28:48.923Z,95502.03
2022-08-19T21:31:18.411Z,95504.75
2022-08-19T21:33:47.925Z,95505.56
2022-08-19T21:36:17.560Z,95506.66
2022-08-19T21:38:47.144Z,95498.00
2022-08-19T21:41:18.073Z,95481.91
2022-08-19T21:43:47.573Z,95494.38
2022-08-19T21:46:17.288Z,95495.78
2022-08-19T21:48:46.802Z,95505.06
2022-08-19T21:51:16.781Z,95501.03
2022-08-19T21:53:46.408Z,95506.78
2022-08-19T21:56:19.890Z,95500.84
2022-08-19T21:58:49.409Z,95498.75
2022-08-19T22:01:19.102Z,95508.19
2022-08-19T22:03:48.595Z,95501.34
2022-08-19T22:06:19.807Z,95502.66
2022-08-19T22:08:49.321Z,95503.94
2022-08-19T22:11:20.237Z,95498.22
2022-08-19T22:13:53.812Z,95501.53
2022-08-19T22:16:26.822Z,95500.72
2022-08-19T22:18:56.300Z,95498.81
2022-08-19T22:21:40.374Z,95494.81
2022-08-19T22:24:11.100Z,95494.00
2022-08-19T22:26:41.931Z,95501.66
2022-08-19T22:29:11.758Z,95502.25
2022-08-19T22:31:45.681Z,95497.31
2022-08-19T22:34:24.736Z,95501.66
2022-08-19T22:36:54.273Z,95499.94
2022-08-19T22:39:23.814Z,95496.72
2022-08-19T22:41:55.085Z,95498.13
2022-08-19T22:44:24.596Z,95490.38
2022-08-19T22:46:54.097Z,95495.50
2022-08-19T22:49:23.604Z,95487.94
2022-08-19T22:52:10.617Z,95486.84
2022-08-19T22:54:40.187Z,95484.78
2022-08-19T22:57:11.299Z,95482.53
2022-08-19T22:59:41.397Z,95495.31
2022-08-19T23:02:11.845Z,95491.78
2022-08-19T23:04:41.334Z,95481.72
2022-08-19T23:07:10.808Z,95484.63
2022-08-19T23:09:40.919Z,95486.22
2022-08-19T23:12:17.575Z,95485.44
2022-08-19T23:14:47.124Z,95491.47
2022-08-19T23:17:16.637Z,95482.88
2022-08-19T23:19:50.628Z,95482.41
2022-08-19T23:22:20.691Z,95485.59
2022-08-19T23:24:55.970Z,95497.72
2022-08-19T23:27:44.606Z,95483.88
2022-08-19T23:30:29.392Z,95486.59
2022-08-19T23:33:07.669Z,95491.72
2022-08-19T23:35:40.677Z,95488.50
2022-08-19T23:38:11.308Z,95489.00
2022-08-19T23:40:41.464Z,95497.53
2022-08-19T23:43:17.401Z,95495.91
2022-08-19T23:45:57.382Z,95494.81
2022-08-19T23:48:28.522Z,95506.16
2022-08-19T23:50:58.627Z,95495.59
2022-08-19T23:53:28.704Z,95503.88
2022-08-19T23:55:58.622Z,95502.28
2022-08-19T23:58:32.894Z,95506.59
